Time;durP1;ratioP1;P1;durP2;ratioP2;P2;SDS_P1;SDS_P2;PMS_P1;PMS_P2;Temp;Humidity;BMP_temperature;BMP_pressure;BME280_temperature;BME280_humidity;BME280_pressure;Samples;Min_cycle;Max_cycle;Signal;HPM_P1;HPM_P2
2022/05/30 00:00:17;;;;;;;0.67;0.67;;;;;;;11.56;82.37;94856.47;4366214;32;20197;-62
2022/05/30 00:02:42;;;;;;;0.50;0.50;;;;;;;11.59;83.42;94863.84;4353335;32;20226;-62
2022/05/30 00:05:11;;;;;;;0.40;0.40;;;;;;;11.83;83.03;94863.44;4369225;32;20208;-62
2022/05/30 00:07:39;;;;;;;0.23;0.23;;;;;;;11.55;82.45;94850.38;4366228;32;20207;-62
2022/05/30 00:10:08;;;;;;;0.57;0.37;;;;;;;11.21;82.65;94856.41;4369762;32;20300;-62
2022/05/30 00:12:34;;;;;;;0.30;0.30;;;;;;;11.57;81.89;94855.38;4368371;32;20246;-62
2022/05/30 00:14:59;;;;;;;0.53;0.53;;;;;;;11.68;83.03;94851.31;4367596;32;20197;-62
2022/05/30 00:17:25;;;;;;;0.40;0.40;;;;;;;11.40;82.99;94848.19;4382530;32;20191;-62
2022/05/30 00:19:53;;;;;;;0.30;0.30;;;;;;;11.37;83.01;94846.13;4390988;32;23639;-62
2022/05/30 00:22:21;;;;;;;0.20;0.20;;;;;;;11.65;83.15;94851.94;4391924;32;20204;-62
2022/05/30 00:24:46;;;;;;;0.00;0.00;;;;;;;11.80;82.07;94848.09;4381594;32;20185;-62
2022/05/30 00:27:12;;;;;;;0.10;0.10;;;;;;;11.46;82.97;94848.78;4390153;32;20257;-62
2022/05/30 00:29:39;;;;;;;0.40;0.40;;;;;;;11.47;82.52;94848.47;4395732;32;20233;-61
2022/05/30 00:32:05;;;;;;;0.47;0.47;;;;;;;11.50;82.18;94855.84;4369951;32;20211;-62
2022/05/30 00:34:32;;;;;;;0.87;0.43;;;;;;;11.51;82.19;94846.78;4369767;32;20203;-62
2022/05/30 00:37:00;;;;;;;0.73;0.73;;;;;;;11.55;82.92;94842.41;4392761;32;20213;-62
2022/05/30 00:39:25;;;;;;;0.50;0.50;;;;;;;11.60;82.88;94842.28;4352479;32;20196;-62
2022/05/30 00:41:50;;;;;;;0.33;0.33;;;;;;;11.51;82.34;94843.34;4355220;32;20205;-62
2022/05/30 00:44:16;;;;;;;0.27;0.27;;;;;;;11.31;80.90;94842.06;4372626;32;20189;-62
2022/05/30 00:46:41;;;;;;;0.53;0.43;;;;;;;11.44;83.17;94835.81;4378363;32;20184;-62
2022/05/30 00:49:11;;;;;;;0.20;0.20;;;;;;;11.45;82.90;94840.03;4335231;32;20223;-60
2022/05/30 00:51:48;;;;;;;0.20;0.20;;;;;;;11.50;83.10;94837.25;4337515;32;20205;-62
2022/05/30 00:54:17;;;;;;;0.27;0.27;;;;;;;11.54;82.48;94838.19;4378245;32;20200;-62
2022/05/30 00:56:47;;;;;;;0.53;0.47;;;;;;;11.35;83.89;94832.38;4377304;32;20259;-62
2022/05/30 00:59:14;;;;;;;0.10;0.10;;;;;;;11.57;82.79;94829.59;4360935;32;20197;-62
2022/05/30 01:01:39;;;;;;;0.93;0.27;;;;;;;11.26;84.15;94828.91;4360236;32;20200;-62
2022/05/30 01:06:54;;;;;;;0.03;0.03;;;;;;;11.07;82.13;94820.44;4357368;32;20297;-62
2022/05/30 01:09:30;;;;;;;0.47;0.47;;;;;;;11.27;82.11;94825.16;4343661;32;20205;-62
2022/05/30 01:12:04;;;;;;;0.17;0.17;;;;;;;11.52;82.83;94827.09;4344463;32;20187;-63
2022/05/30 01:14:41;;;;;;;0.50;0.50;;;;;;;11.14;84.89;94826.09;4372871;32;20200;-62
2022/05/30 01:17:10;;;;;;;0.40;0.40;;;;;;;10.88;84.59;94813.50;4357225;32;20212;-63
2022/05/30 01:19:47;;;;;;;0.27;0.27;;;;;;;11.20;83.02;94814.25;4349613;32;20247;-62
2022/05/30 01:22:35;;;;;;;0.20;0.13;;;;;;;11.39;83.31;94812.09;4377444;32;20197;-62
2022/05/30 01:25:24;;;;;;;0.10;0.10;;;;;;;11.20;83.21;94812.38;4377313;32;20201;-62
2022/05/30 01:28:08;;;;;;;0.20;0.20;;;;;;;11.19;84.03;94807.38;4346675;32;20195;-62
2022/05/30 01:30:37;;;;;;;0.27;0.27;;;;;;;11.12;83.92;94810.47;4354665;32;20192;-63
2022/05/30 01:33:03;;;;;;;0.33;0.33;;;;;;;10.88;83.79;94805.56;4365048;32;20216;-62
2022/05/30 01:35:28;;;;;;;0.40;0.40;;;;;;;11.09;83.77;94802.34;4360068;32;20203;-62
2022/05/30 01:37:59;;;;;;;0.47;0.30;;;;;;;11.20;83.03;94803.63;4372231;32;20254;-62
2022/05/30 01:40:27;;;;;;;0.30;0.30;;;;;;;10.69;83.46;94805.03;4375624;32;20272;-62
2022/05/30 01:42:54;;;;;;;0.43;0.33;;;;;;;10.93;83.95;94799.34;4365856;32;20274;-62
2022/05/30 01:45:20;;;;;;;6.23;0.63;;;;;;;11.06;83.96;94798.41;4368778;32;20226;-62
2022/05/30 01:47:45;;;;;;;0.13;0.13;;;;;;;11.20;83.51;94799.09;4337943;32;20216;-62
2022/05/30 01:50:11;;;;;;;0.40;0.40;;;;;;;10.99;84.03;94790.16;4371460;32;20185;-62
2022/05/30 01:52:38;;;;;;;0.20;0.20;;;;;;;11.16;83.09;94786.75;4364308;32;20200;-62
2022/05/30 01:55:05;;;;;;;0.10;0.10;;;;;;;11.23;83.57;94789.69;4382141;32;20219;-57
2022/05/30 01:57:30;;;;;;;0.50;0.47;;;;;;;10.99;84.78;94784.84;4391131;32;20202;-62
2022/05/30 01:59:56;;;;;;;0.30;0.30;;;;;;;10.82;84.70;94782.91;4400980;32;20219;-62
2022/05/30 02:02:21;;;;;;;0.37;0.37;;;;;;;10.73;85.22;94784.75;4399103;32;20196;-62
2022/05/30 02:04:47;;;;;;;0.33;0.33;;;;;;;10.96;84.02;94777.50;4392479;32;20196;-62
2022/05/30 02:07:13;;;;;;;0.30;0.30;;;;;;;10.49;83.45;94771.06;4393901;32;20229;-62
2022/05/30 02:09:38;;;;;;;0.57;0.40;;;;;;;10.89;84.18;94771.84;4389232;32;20208;-63
2022/05/30 02:12:05;;;;;;;0.40;0.40;;;;;;;11.00;82.57;94765.97;4385732;32;20251;-62
2022/05/30 02:14:33;;;;;;;0.20;0.20;;;;;;;11.02;83.60;94750.47;4407980;32;20222;-62
2022/05/30 02:17:01;;;;;;;0.53;0.53;;;;;;;11.17;83.59;94754.56;4394475;32;20253;-62
2022/05/30 02:19:38;;;;;;;10.00;1.00;;;;;;;10.91;84.30;94757.19;4393972;32;20189;-62
2022/05/30 02:22:10;;;;;;;0.30;0.30;;;;;;;11.16;82.50;94760.19;4405311;32;20202;-62
2022/05/30 02:24:38;;;;;;;0.37;0.37;;;;;;;10.82;84.89;94766.97;4385586;32;20224;-62
2022/05/30 02:27:05;;;;;;;0.40;0.40;;;;;;;11.03;84.09;94769.84;4356123;32;20269;-61
2022/05/30 02:29:30;;;;;;;1.90;0.40;;;;;;;11.15;83.94;94774.56;4401671;32;20188;-62
2022/05/30 02:31:57;;;;;;;0.47;0.47;;;;;;;11.15;81.67;94780.66;4395742;32;20301;-63
2022/05/30 02:37:06;;;;;;;0.77;0.77;;;;;;;11.14;82.16;94779.09;4343744;32;20266;-62
2022/05/30 02:39:31;;;;;;;1.17;0.60;;;;;;;11.11;82.70;94778.91;4376867;32;20185;-63
2022/05/30 02:42:02;;;;;;;0.23;0.23;;;;;;;10.72;82.80;94777.88;4400597;32;20201;-62
2022/05/30 02:44:27;;;;;;;0.30;0.30;;;;;;;11.07;84.14;94780.63;4374544;32;20196;-62
2022/05/30 02:46:57;;;;;;;0.50;0.40;;;;;;;10.94;84.48;94769.84;4386880;32;20233;-62
2022/05/30 02:49:23;;;;;;;0.30;0.30;;;;;;;10.98;83.05;94775.31;4383555;32;20277;-62
2022/05/30 02:51:50;;;;;;;0.13;0.13;;;;;;;11.00;82.76;94771.25;4377605;32;20176;-62
2022/05/30 02:54:16;;;;;;;0.70;0.70;;;;;;;11.18;82.28;94781.91;4391203;32;20207;-62
2022/05/30 02:56:42;;;;;;;0.87;0.53;;;;;;;10.80;84.61;94786.97;4381640;32;20184;-62
2022/05/30 02:59:08;;;;;;;0.60;0.60;;;;;;;10.98;84.42;94778.75;4388295;32;20229;-62
2022/05/30 03:01:36;;;;;;;0.43;0.43;;;;;;;10.76;83.29;94788.66;4387956;32;20275;-61
2022/05/30 03:04:04;;;;;;;0.30;0.30;;;;;;;10.63;83.29;94785.00;4334412;32;20227;-62
2022/05/30 03:06:30;;;;;;;2.53;0.63;;;;;;;10.68;83.25;94788.31;4375358;32;20187;-62
2022/05/30 03:08:57;;;;;;;0.30;0.30;;;;;;;10.78;83.61;94781.97;4405124;32;20292;-63
2022/05/30 03:11:23;;;;;;;0.20;0.20;;;;;;;10.60;83.70;94780.31;4383133;32;20180;-62
2022/05/30 03:13:50;;;;;;;0.27;0.27;;;;;;;10.31;84.23;94784.25;4375263;32;20207;-62
2022/05/30 03:16:17;;;;;;;0.47;0.40;;;;;;;10.78;84.66;94781.19;4397669;32;20222;-62
2022/05/30 03:18:43;;;;;;;0.73;0.33;;;;;;;10.72;82.94;94772.56;4396511;32;20180;-62
2022/05/30 03:21:10;;;;;;;0.10;0.10;;;;;;;10.85;84.37;94774.31;4382213;32;20224;-62
2022/05/30 03:23:36;;;;;;;0.13;0.13;;;;;;;10.63;82.98;94769.88;4389349;32;20277;-62
2022/05/30 03:26:08;;;;;;;0.30;0.30;;;;;;;10.63;84.57;94769.09;4378413;32;20213;-62
2022/05/30 03:28:38;;;;;;;0.30;0.30;;;;;;;10.72;83.46;94766.50;4384938;32;20311;-62
2022/05/30 03:31:07;;;;;;;1.13;0.50;;;;;;;10.82;83.33;94772.28;4384967;32;20227;-62
2022/05/30 03:33:37;;;;;;;0.13;0.13;;;;;;;11.00;82.53;94773.91;4378783;32;20203;-62
2022/05/30 03:36:26;;;;;;;0.10;0.10;;;;;;;10.87;81.85;94782.75;4402085;32;20263;-61
2022/05/30 03:38:54;;;;;;;0.37;0.37;;;;;;;11.09;82.25;94775.78;4397905;32;20200;-62
2022/05/30 03:41:21;;;;;;;0.20;0.20;;;;;;;10.92;81.73;94774.66;4381255;32;20238;-62
2022/05/30 03:43:46;;;;;;;0.30;0.30;;;;;;;10.97;83.85;94782.50;4383411;32;20223;-62
2022/05/30 03:46:11;;;;;;;0.63;0.63;;;;;;;11.12;82.67;94788.44;4370028;32;20250;-62
2022/05/30 03:48:38;;;;;;;0.60;0.60;;;;;;;11.17;82.73;94783.78;4392614;32;20253;-61
2022/05/30 03:51:12;;;;;;;1.50;0.60;;;;;;;11.12;82.81;94780.47;4382599;32;20210;-61
2022/05/30 03:53:41;;;;;;;0.13;0.13;;;;;;;10.89;83.28;94780.59;4388797;32;20192;-61
2022/05/30 03:56:07;;;;;;;0.57;0.43;;;;;;;11.21;83.53;94778.63;4385804;32;20206;-62
2022/05/30 03:58:33;;;;;;;0.30;0.30;;;;;;;11.21;82.66;94789.25;4364952;32;20208;-59
2022/05/30 04:01:07;;;;;;;0.53;0.53;;;;;;;11.02;83.50;94786.84;4404298;32;20192;-62
2022/05/30 04:03:35;;;;;;;0.30;0.30;;;;;;;10.99;82.98;94798.09;4398080;32;20253;-62
2022/05/30 04:06:08;;;;;;;0.37;0.37;;;;;;;11.14;83.51;94799.53;4398795;32;20196;-62
2022/05/30 04:08:33;;;;;;;0.03;0.03;;;;;;;10.52;78.85;94799.66;4369435;32;20180;-61
2022/05/30 04:11:00;;;;;;;0.30;0.30;;;;;;;10.99;82.26;94792.81;4390829;32;20310;-62
2022/05/30 04:13:26;;;;;;;0.20;0.20;;;;;;;10.88;83.62;94792.28;4399589;32;20274;-62
2022/05/30 04:15:51;;;;;;;0.43;0.43;;;;;;;10.41;82.07;94798.31;4371323;32;20192;-62
2022/05/30 04:18:17;;;;;;;0.50;0.50;;;;;;;10.31;82.71;94799.38;4376738;32;20222;-62
2022/05/30 04:20:46;;;;;;;0.10;0.10;;;;;;;10.54;83.96;94798.25;4387070;32;20203;-62
2022/05/30 04:23:16;;;;;;;0.37;0.37;;;;;;;10.58;83.54;94793.13;4392401;32;20197;-62
2022/05/30 04:25:41;;;;;;;0.10;0.10;;;;;;;10.30;84.39;94792.50;4397908;32;20196;-62
2022/05/30 04:28:09;;;;;;;0.10;0.10;;;;;;;10.83;83.71;94787.13;4388343;32;20184;-61
2022/05/30 04:30:34;;;;;;;0.30;0.30;;;;;;;10.75;83.93;94793.19;4390736;32;20193;-62
2022/05/30 04:32:59;;;;;;;0.20;0.20;;;;;;;11.16;83.42;94803.44;4387525;32;20222;-62
2022/05/30 04:35:25;;;;;;;0.30;0.30;;;;;;;11.23;83.17;94816.25;4390666;32;20187;-61
2022/05/30 04:37:50;;;;;;;5.80;0.63;;;;;;;11.07;81.36;94821.22;4403246;32;20256;-62
2022/05/30 04:40:18;;;;;;;0.33;0.33;;;;;;;10.71;83.14;94817.97;4402064;32;20232;-62
2022/05/30 04:42:45;;;;;;;2.20;0.83;;;;;;;10.67;81.38;94823.09;4397791;32;20235;-62
2022/05/30 04:45:14;;;;;;;0.40;0.40;;;;;;;10.65;83.85;94815.44;4389562;32;20199;-62
2022/05/30 04:47:39;;;;;;;1.83;0.83;;;;;;;10.70;82.30;94822.50;4390185;32;20184;-61
2022/05/30 04:50:10;;;;;;;1.03;0.73;;;;;;;10.92;84.05;94817.13;4391929;32;20253;-61
2022/05/30 04:52:35;;;;;;;0.50;0.50;;;;;;;10.96;83.33;94815.44;4382014;32;20207;-61
2022/05/30 04:55:00;;;;;;;0.37;0.37;;;;;;;11.15;81.88;94804.53;4391077;32;20195;-61
2022/05/30 04:57:27;;;;;;;19.40;0.83;;;;;;;11.14;81.35;94815.47;4381179;32;20188;-62
2022/05/30 04:59:52;;;;;;;0.47;0.47;;;;;;;11.29;83.77;94810.50;4386248;32;20209;-62
2022/05/30 05:02:18;;;;;;;0.20;0.20;;;;;;;11.49;82.29;94811.78;4382229;32;20230;-62
2022/05/30 05:04:43;;;;;;;0.27;0.27;;;;;;;11.21;81.53;94816.59;4368326;32;20256;-61
2022/05/30 05:07:10;;;;;;;0.90;0.60;;;;;;;11.14;81.30;94818.13;4383291;32;20199;-62
2022/05/30 05:09:46;;;;;;;0.87;0.70;;;;;;;11.13;82.32;94817.34;4372887;32;20188;-62
2022/05/30 05:12:12;;;;;;;0.43;0.43;;;;;;;11.05;82.84;94815.44;4384091;32;20219;-62
2022/05/30 05:14:37;;;;;;;0.30;0.30;;;;;;;11.12;81.93;94817.66;4387887;32;20215;-61
2022/05/30 05:17:05;;;;;;;0.50;0.50;;;;;;;11.28;82.35;94814.25;4400554;32;20184;-62
2022/05/30 05:19:32;;;;;;;0.30;0.30;;;;;;;11.54;81.04;94806.31;4383788;32;20236;-61
2022/05/30 05:21:58;;;;;;;0.90;0.63;;;;;;;11.65;80.96;94812.88;4404182;32;20251;-62
2022/05/30 05:24:23;;;;;;;2.63;0.50;;;;;;;11.75;81.38;94822.44;4400181;32;20229;-61
2022/05/30 05:26:50;;;;;;;0.53;0.30;;;;;;;11.84;81.72;94823.25;4400706;32;20272;-62
2022/05/30 05:29:16;;;;;;;0.20;0.20;;;;;;;11.97;81.18;94818.84;4405564;32;20176;-62
2022/05/30 05:31:43;;;;;;;0.73;0.40;;;;;;;11.81;79.76;94825.75;4390896;32;20192;-62
2022/05/30 05:34:10;;;;;;;0.50;0.50;;;;;;;11.67;81.26;94821.31;4391621;32;20188;-61
2022/05/30 05:36:39;;;;;;;0.50;0.50;;;;;;;11.94;80.12;94827.47;4404242;32;20203;-62
2022/05/30 05:39:05;;;;;;;8.93;1.17;;;;;;;12.20;82.74;94833.53;4403507;32;20237;-62
2022/05/30 05:41:31;;;;;;;2.07;1.77;;;;;;;12.04;82.53;94827.16;4401387;32;20192;-63
2022/05/30 05:43:57;;;;;;;21.37;2.63;;;;;;;12.34;82.20;94828.81;4389219;32;20229;-62
2022/05/30 05:46:25;;;;;;;24.10;2.07;;;;;;;12.19;82.17;94829.31;4402558;32;20245;-62
2022/05/30 05:48:52;;;;;;;2.83;1.93;;;;;;;12.62;81.99;94823.13;4389464;32;20202;-62
2022/05/30 05:51:19;;;;;;;4.23;1.20;;;;;;;12.80;79.87;94823.84;4394364;32;20202;-62
2022/05/30 05:53:45;;;;;;;1.47;1.37;;;;;;;12.59;79.18;94818.44;4388848;32;20184;-63
2022/05/30 05:56:17;;;;;;;0.67;0.67;;;;;;;12.59;79.65;94813.88;4379603;32;20240;-62
2022/05/30 05:58:43;;;;;;;0.63;0.63;;;;;;;12.67;78.12;94813.09;4370072;32;20187;-62
2022/05/30 06:01:10;;;;;;;1.27;1.13;;;;;;;12.97;78.08;94805.91;4393737;32;20223;-61
2022/05/30 06:03:35;;;;;;;1.17;0.80;;;;;;;12.89;77.38;94803.28;4372468;32;20179;-62
2022/05/30 06:06:05;;;;;;;0.20;0.20;;;;;;;12.75;76.80;94806.16;4388935;32;20180;-62
2022/05/30 06:08:31;;;;;;;4.70;1.03;;;;;;;12.77;73.83;94806.62;4382695;32;20184;-62
2022/05/30 06:11:08;;;;;;;0.50;0.50;;;;;;;13.00;76.58;94797.28;4380924;32;20198;-62
2022/05/30 06:13:37;;;;;;;0.20;0.20;;;;;;;12.78;74.32;94797.53;4379306;32;20184;-62
2022/05/30 06:16:07;;;;;;;1.80;0.93;;;;;;;12.83;74.50;94800.03;4397208;32;20211;-62
2022/05/30 06:18:32;;;;;;;0.13;0.13;;;;;;;12.88;74.79;94799.84;4397240;32;20272;-62
2022/05/30 06:20:59;;;;;;;1.13;0.90;;;;;;;12.85;74.82;94800.50;4388391;32;20203;-62
2022/05/30 06:23:24;;;;;;;0.30;0.30;;;;;;;13.00;74.78;94799.94;4381670;32;20189;-63
2022/05/30 06:25:49;;;;;;;0.50;0.50;;;;;;;13.20;75.46;94800.34;4401603;32;20188;-62
2022/05/30 06:28:15;;;;;;;0.20;0.20;;;;;;;13.19;75.62;94804.09;4383090;32;20180;-62
2022/05/30 06:30:40;;;;;;;0.47;0.27;;;;;;;13.19;71.64;94806.75;4379719;32;20180;-62
2022/05/30 06:33:07;;;;;;;0.90;0.50;;;;;;;13.29;75.41;94809.06;4390953;32;20224;-62
2022/05/30 06:35:32;;;;;;;0.60;0.60;;;;;;;13.72;73.83;94803.44;4392668;32;20191;-62
2022/05/30 06:37:57;;;;;;;0.93;0.93;;;;;;;13.48;74.85;94808.63;4396120;32;20189;-61
2022/05/30 06:40:24;;;;;;;0.10;0.10;;;;;;;13.52;77.44;94809.53;4395612;32;20279;-62
2022/05/30 06:42:49;;;;;;;0.20;0.20;;;;;;;13.12;74.58;94814.44;4403259;32;20175;-62
2022/05/30 06:45:15;;;;;;;0.40;0.40;;;;;;;13.04;75.94;94826.72;4399388;32;20242;-61
2022/05/30 06:47:40;;;;;;;0.50;0.50;;;;;;;13.13;76.70;94821.34;4393562;32;20259;-60
2022/05/30 06:50:06;;;;;;;0.63;0.63;;;;;;;13.25;75.41;94816.13;4392833;32;20244;-60
2022/05/30 06:52:31;;;;;;;2.43;1.30;;;;;;;12.78;72.19;94813.50;4397398;32;20180;-61
2022/05/30 06:54:56;;;;;;;0.70;0.70;;;;;;;13.36;77.60;94809.31;4398576;32;20184;-60
2022/05/30 07:00:06;;;;;;;0.47;0.47;;;;;;;13.40;73.88;94802.25;4402247;32;20199;-61
2022/05/30 07:02:32;;;;;;;0.50;0.37;;;;;;;13.22;69.96;94814.12;4405824;32;20203;-61
2022/05/30 07:04:57;;;;;;;0.57;0.57;;;;;;;13.48;71.91;94812.09;4404554;32;20216;-61
2022/05/30 07:07:22;;;;;;;0.90;0.90;;;;;;;13.21;68.36;94817.87;4406924;32;20319;-62
2022/05/30 07:09:47;;;;;;;1.17;0.67;;;;;;;13.18;71.54;94811.31;4404911;32;20192;-61
2022/05/30 07:12:13;;;;;;;0.43;0.43;;;;;;;12.97;70.53;94815.78;4395638;32;20183;-61
2022/05/30 07:14:39;;;;;;;0.53;0.53;;;;;;;13.10;73.92;94814.75;4391825;32;20196;-61
2022/05/30 07:17:06;;;;;;;0.70;0.70;;;;;;;13.25;70.55;94818.81;4393432;32;20203;-61
2022/05/30 07:19:32;;;;;;;0.80;0.80;;;;;;;13.04;70.69;94824.06;4391170;32;20192;-61
2022/05/30 07:21:58;;;;;;;0.50;0.50;;;;;;;12.97;71.48;94823.75;4393476;32;20187;-61
2022/05/30 07:24:23;;;;;;;2.23;0.90;;;;;;;13.14;71.86;94818.34;4407389;32;20259;-61
2022/05/30 07:26:49;;;;;;;1.47;1.37;;;;;;;13.11;71.00;94823.53;4400085;32;20207;-61
2022/05/30 07:29:14;;;;;;;0.40;0.40;;;;;;;12.89;69.10;94827.22;4392678;32;20204;-61
2022/05/30 07:31:40;;;;;;;0.70;0.70;;;;;;;12.90;71.96;94826.91;4399067;32;20184;-62
2022/05/30 07:34:05;;;;;;;0.30;0.30;;;;;;;13.41;73.18;94831.25;4390034;32;20203;-62
2022/05/30 07:36:31;;;;;;;0.43;0.43;;;;;;;13.71;72.60;94829.34;4402229;32;20184;-62
2022/05/30 07:38:57;;;;;;;0.10;0.10;;;;;;;13.97;70.84;94826.44;4392689;32;20253;-61
2022/05/30 07:41:25;;;;;;;0.47;0.47;;;;;;;14.13;67.60;94831.19;4405248;32;20275;-62
2022/05/30 07:43:51;;;;;;;1.47;0.80;;;;;;;14.37;68.24;94828.59;4387010;32;20176;-62
2022/05/30 07:46:18;;;;;;;0.70;0.70;;;;;;;14.60;68.38;94827.13;4393036;32;20241;-61
2022/05/30 07:48:43;;;;;;;0.50;0.50;;;;;;;14.85;67.56;94833.31;4402260;32;20226;-62
2022/05/30 07:51:10;;;;;;;1.50;0.80;;;;;;;14.98;66.89;94826.84;4392405;32;20231;-62
2022/05/30 07:53:37;;;;;;;0.60;0.37;;;;;;;14.99;65.46;94827.63;4405565;32;20204;-62
2022/05/30 07:56:08;;;;;;;0.73;0.47;;;;;;;14.96;65.13;94831.00;4393376;32;20192;-62
2022/05/30 07:58:34;;;;;;;0.50;0.50;;;;;;;14.96;64.55;94834.44;4383603;32;20188;-63
2022/05/30 08:01:00;;;;;;;0.53;0.53;;;;;;;15.01;62.56;94842.22;4392418;32;20198;-62
2022/05/30 08:03:26;;;;;;;2.30;0.67;;;;;;;15.24;65.35;94836.44;4388483;32;20177;-62
2022/05/30 08:06:01;;;;;;;1.13;0.60;;;;;;;15.27;64.31;94841.13;4400811;32;20185;-63
2022/05/30 08:08:28;;;;;;;0.20;0.20;;;;;;;15.50;64.96;94839.56;4388848;32;20251;-63
2022/05/30 08:10:53;;;;;;;0.50;0.50;;;;;;;15.76;64.07;94845.34;4332860;32;20447;-62
2022/05/30 08:13:19;;;;;;;0.40;0.40;;;;;;;15.37;60.77;94843.38;4375324;32;20185;-62
2022/05/30 08:15:44;;;;;;;1.17;1.17;;;;;;;15.45;63.80;94837.09;4375361;32;20193;-62
2022/05/30 08:18:15;;;;;;;0.97;0.87;;;;;;;15.43;63.11;94842.00;4390614;32;20263;-62
2022/05/30 08:20:40;;;;;;;0.87;0.87;;;;;;;15.60;62.34;94833.78;4366749;32;20255;-62
2022/05/30 08:23:06;;;;;;;0.67;0.47;;;;;;;15.45;62.07;94851.25;4402493;32;20226;-62
2022/05/30 08:25:33;;;;;;;0.13;0.13;;;;;;;15.18;62.45;94848.47;4351363;32;20197;-63
2022/05/30 08:27:59;;;;;;;0.40;0.40;;;;;;;15.05;64.10;94848.47;4377158;32;20187;-61
2022/05/30 08:30:25;;;;;;;0.30;0.30;;;;;;;15.18;62.40;94848.47;4388076;32;20211;-61
2022/05/30 08:32:51;;;;;;;0.47;0.47;;;;;;;15.00;60.69;94847.91;4370197;32;20207;-61
2022/05/30 08:35:19;;;;;;;0.20;0.20;;;;;;;15.26;62.42;94847.59;4387782;32;20192;-62
2022/05/30 08:37:46;;;;;;;0.67;0.63;;;;;;;15.25;63.86;94843.34;4375576;32;20191;-62
2022/05/30 08:43:13;;;;;;;0.23;0.23;;;;;;;15.32;63.08;94847.03;4386235;32;20237;-62
2022/05/30 08:45:41;;;;;;;0.10;0.10;;;;;;;15.43;60.48;94850.03;4391384;32;20188;-62
2022/05/30 08:48:15;;;;;;;2.13;0.87;;;;;;;15.80;62.17;94856.91;4374935;32;20196;-60
2022/05/30 08:50:53;;;;;;;0.93;0.93;;;;;;;15.87;60.42;94855.56;4392496;32;20195;-61
2022/05/30 08:53:42;;;;;;;1.40;0.40;;;;;;;15.54;58.49;94853.81;4392085;32;20231;-61
2022/05/30 08:56:28;;;;;;;0.10;0.10;;;;;;;14.93;59.85;94856.47;4391542;32;20219;-61
2022/05/30 08:59:12;;;;;;;0.43;0.43;;;;;;;14.59;58.52;94862.16;4358934;32;20298;-61
2022/05/30 09:01:53;;;;;;;0.30;0.30;;;;;;;14.77;59.27;94853.66;4348481;32;20230;-60
2022/05/30 09:04:28;;;;;;;0.43;0.43;;;;;;;14.65;60.81;94853.63;4359949;32;20203;-60
2022/05/30 09:07:08;;;;;;;0.20;0.20;;;;;;;14.81;60.03;94858.34;4365794;32;23157;-61
2022/05/30 09:10:04;;;;;;;0.97;0.50;;;;;;;14.83;59.05;94864.91;4385471;32;20214;-61
2022/05/30 09:12:39;;;;;;;1.80;1.70;;;;;;;15.00;59.32;94856.69;4314669;32;20196;-62
2022/05/30 09:15:34;;;;;;;0.47;0.47;;;;;;;14.87;59.27;94854.34;4372375;32;20241;-61
2022/05/30 09:18:00;;;;;;;0.43;0.43;;;;;;;14.99;58.70;94854.34;4394690;32;20202;-61
2022/05/30 09:20:28;;;;;;;0.57;0.57;;;;;;;14.94;58.23;94860.72;4390464;32;20207;-61
2022/05/30 09:22:55;;;;;;;3.57;0.70;;;;;;;14.99;57.27;94855.13;4380718;32;20188;-60
2022/05/30 09:28:15;;;;;;;0.37;0.37;;;;;;;14.79;58.06;94862.09;4371041;32;20221;-60
2022/05/30 09:30:52;;;;;;;0.37;0.37;;;;;;;14.65;58.66;94861.63;4382420;32;20215;-60
2022/05/30 09:33:37;;;;;;;0.13;0.13;;;;;;;14.76;58.14;94856.66;4380201;32;20198;-60
2022/05/30 09:36:30;;;;;;;3.53;0.73;;;;;;;14.50;58.60;94858.81;4361151;32;20188;-61
2022/05/30 09:39:06;;;;;;;0.60;0.60;;;;;;;14.58;58.25;94857.94;4371007;32;20221;-61
2022/05/30 09:41:38;;;;;;;0.90;0.90;;;;;;;14.62;59.43;94858.84;4373971;32;20192;-62
2022/05/30 09:44:45;;;;;;;0.30;0.30;;;;;;;14.59;57.07;94856.84;4378307;32;20267;-61
2022/05/30 09:47:16;;;;;;;0.73;0.60;;;;;;;14.63;58.88;94857.75;4350337;32;20203;-59
2022/05/30 09:49:44;;;;;;;0.53;0.53;;;;;;;14.79;58.37;94858.66;4367493;32;20187;-59
2022/05/30 09:52:27;;;;;;;0.60;0.60;;;;;;;14.79;60.49;94856.00;4390940;32;20188;-60
2022/05/30 09:54:56;;;;;;;0.27;0.27;;;;;;;14.59;59.39;94859.50;4382497;32;20180;-57
2022/05/30 09:57:55;;;;;;;0.73;0.73;;;;;;;14.62;59.28;94856.19;4388137;32;20191;-60
2022/05/30 10:00:34;;;;;;;0.57;0.50;;;;;;;14.64;58.80;94857.41;4390949;32;20291;-63
2022/05/30 10:03:31;;;;;;;0.40;0.40;;;;;;;14.42;59.65;94858.56;4369997;32;20198;-62
2022/05/30 10:06:17;;;;;;;0.53;0.53;;;;;;;14.31;60.72;94864.63;4371947;32;20184;-60
2022/05/30 10:09:07;;;;;;;1.07;0.63;;;;;;;14.47;61.36;94856.81;4352881;32;20292;-62
2022/05/30 10:11:36;;;;;;;0.47;0.47;;;;;;;14.56;61.09;94858.25;4362644;32;20293;-61
2022/05/30 10:14:32;;;;;;;0.57;0.50;;;;;;;14.60;58.34;94853.84;4350116;32;20192;-61
2022/05/30 10:17:09;;;;;;;0.57;0.57;;;;;;;14.64;58.54;94859.28;4385713;32;20219;-62
2022/05/30 10:19:42;;;;;;;0.60;0.60;;;;;;;14.97;59.05;94852.00;4397300;32;20202;-61
2022/05/30 10:28:54;;;;;;;0.77;0.77;;;;;;;15.03;56.38;94852.56;4350712;32;20215;-62
2022/05/30 10:31:48;;;;;;;0.50;0.50;;;;;;;15.26;56.09;94855.59;4376921;32;20196;-62
2022/05/30 10:34:51;;;;;;;0.37;0.37;;;;;;;15.26;55.06;94853.72;4400956;32;20271;-61
2022/05/30 10:37:56;;;;;;;0.70;0.70;;;;;;;15.34;58.26;94847.47;4381447;32;20301;-63
2022/05/30 10:40:47;;;;;;;0.53;0.53;;;;;;;15.12;54.23;94848.69;4386021;32;20185;-62
2022/05/30 10:43:49;;;;;;;0.57;0.57;;;;;;;15.58;54.59;94849.41;4368030;32;20260;-61
2022/05/30 10:46:44;;;;;;;0.47;0.47;;;;;;;15.75;53.57;94845.69;4395210;32;20187;-62
2022/05/30 10:49:14;;;;;;;0.40;0.40;;;;;;;15.77;54.55;94852.25;4384379;32;20184;-61
2022/05/30 10:52:28;;;;;;;0.23;0.23;;;;;;;15.85;54.86;94847.09;4360909;32;20184;-62
2022/05/30 10:55:20;;;;;;;0.50;0.50;;;;;;;15.67;53.56;94850.03;4370571;32;20210;-61
2022/05/30 10:57:54;;;;;;;1.97;0.60;;;;;;;15.48;54.68;94841.78;4344433;32;20196;-61
2022/05/30 11:00:47;;;;;;;7.23;1.50;;;;;;;15.79;52.68;94852.69;4351243;32;20275;-62
2022/05/30 11:03:46;;;;;;;0.30;0.30;;;;;;;15.69;52.51;94855.03;4373852;32;20271;-61
2022/05/30 11:06:28;;;;;;;0.50;0.50;;;;;;;15.81;55.15;94837.06;4370285;32;20184;-61
2022/05/30 11:09:05;;;;;;;0.23;0.23;;;;;;;15.81;53.85;94847.00;4378434;32;20241;-61
2022/05/30 11:12:12;;;;;;;0.30;0.30;;;;;;;15.80;53.16;94851.56;4381825;32;20248;-61
2022/05/30 11:15:15;;;;;;;3.47;1.00;;;;;;;15.52;53.38;94849.91;4404005;32;20329;-61
2022/05/30 11:17:53;;;;;;;0.50;0.50;;;;;;;15.53;53.55;94846.91;4392448;32;20207;-62
2022/05/30 11:20:34;;;;;;;0.30;0.30;;;;;;;15.22;53.69;94855.47;4397894;32;20214;-61
2022/05/30 11:23:00;;;;;;;0.53;0.53;;;;;;;15.38;54.42;94859.03;4392842;32;20176;-61
2022/05/30 11:25:45;;;;;;;0.20;0.20;;;;;;;15.52;55.36;94863.28;4389853;32;20192;-61
2022/05/30 11:28:48;;;;;;;0.50;0.50;;;;;;;15.72;53.79;94863.19;4388945;32;20189;-61
2022/05/30 11:31:45;;;;;;;1.00;1.00;;;;;;;15.75;53.74;94864.41;4383660;32;20336;-61
2022/05/30 11:34:48;;;;;;;0.33;0.33;;;;;;;16.04;52.97;94868.69;4381926;32;20270;-62
2022/05/30 11:37:38;;;;;;;0.70;0.70;;;;;;;15.98;51.95;94872.72;4355346;32;20267;-61
2022/05/30 11:40:43;;;;;;;0.50;0.50;;;;;;;16.06;52.46;94874.47;4388533;32;20184;-61
2022/05/30 11:43:42;;;;;;;0.43;0.43;;;;;;;15.98;53.69;94878.84;4278359;33;20201;-62
2022/05/30 11:46:33;;;;;;;1.33;0.70;;;;;;;16.22;51.91;94869.97;4292396;32;20434;-54
2022/05/30 11:49:36;;;;;;;0.50;0.50;;;;;;;16.26;51.96;94872.75;4368536;32;20232;-60
2022/05/30 11:52:41;;;;;;;1.40;0.87;;;;;;;16.44;52.44;94864.06;4392681;32;20230;-61
2022/05/30 11:55:48;;;;;;;0.30;0.30;;;;;;;16.53;50.36;94871.19;4347501;32;20193;-59
2022/05/30 11:58:38;;;;;;;0.53;0.53;;;;;;;16.31;50.63;94870.59;4348329;32;20254;-60
2022/05/30 12:01:12;;;;;;;0.60;0.60;;;;;;;16.32;51.43;94874.84;4343633;32;20200;-59
2022/05/30 12:04:15;;;;;;;0.30;0.30;;;;;;;16.43;51.99;94878.59;4357754;32;20224;-59
2022/05/30 12:07:08;;;;;;;0.37;0.37;;;;;;;16.55;49.96;94879.66;4362056;32;20207;-58
2022/05/30 12:09:47;;;;;;;0.93;0.93;;;;;;;16.57;50.02;94872.06;4347890;32;20197;-58
2022/05/30 12:12:28;;;;;;;1.00;1.00;;;;;;;16.32;49.65;94876.75;4377781;32;20189;-59
2022/05/30 12:15:21;;;;;;;1.80;1.27;;;;;;;16.37;49.73;94873.84;4371056;32;20189;-59
2022/05/30 12:24:12;;;;;;;0.20;0.20;;;;;;;16.33;48.36;94873.72;4383926;32;20199;-59